createdAt,value
2022-09-10T00:00:57.586Z,21.30
2022-09-10T00:03:24.378Z,16.55
2022-09-10T00:05:50.970Z,17.17
2022-09-10T00:08:19.077Z,16.60
2022-09-10T00:10:46.845Z,14.88
2022-09-10T00:13:14.560Z,16.20
2022-09-10T00:15:48.428Z,15.38
2022-09-10T00:18:15.700Z,18.30
2022-09-10T00:20:47.971Z,16.05
2022-09-10T00:23:15.885Z,16.38
2022-09-10T00:25:43.067Z,11.35
2022-09-10T00:28:09.846Z,12.32
2022-09-10T00:30:43.721Z,13.95
2022-09-10T00:33:10.571Z,14.35
2022-09-10T00:35:37.493Z,12.63
2022-09-10T00:38:04.370Z,13.30
2022-09-10T00:40:31.642Z,15.07
2022-09-10T00:42:58.214Z,13.93
2022-09-10T00:45:26.760Z,14.52
2022-09-10T00:47:54.844Z,12.65
2022-09-10T00:50:23.796Z,16.90
2022-09-10T00:52:52.627Z,15.02
2022-09-10T00:55:19.629Z,11.43
2022-09-10T00:57:47.696Z,14.85
2022-09-10T01:00:14.729Z,13.23
2022-09-10T01:02:41.458Z,10.77
2022-09-10T01:05:09.232Z,14.15
2022-09-10T01:07:36.278Z,12.57
2022-09-10T01:10:11.658Z,13.52
2022-09-10T01:12:38.320Z,15.50
2022-09-10T01:15:23.478Z,13.65
2022-09-10T01:18:05.216Z,12.25
2022-09-10T01:20:56.238Z,15.32
2022-09-10T01:23:22.660Z,18.45
2022-09-10T01:25:56.830Z,18.77
2022-09-10T01:28:30.552Z,15.68
2022-09-10T01:31:02.039Z,19.80
2022-09-10T01:33:28.501Z,15.90
2022-09-10T01:35:57.812Z,17.98
2022-09-10T01:38:31.829Z,15.88
2022-09-10T01:40:58.823Z,15.90
2022-09-10T01:43:25.302Z,15.70
2022-09-10T01:45:51.814Z,21.15
2022-09-10T01:48:37.061Z,20.33
2022-09-10T01:51:09.525Z,14.90
2022-09-10T01:53:56.467Z,19.45
2022-09-10T01:56:35.690Z,18.38
2022-09-10T01:59:09.024Z,17.80
2022-09-10T02:01:58.105Z,19.00
2022-09-10T02:04:25.590Z,14.43
2022-09-10T02:06:52.143Z,16.98
2022-09-10T02:09:18.957Z,14.77
2022-09-10T02:11:53.015Z,20.23
2022-09-10T02:14:21.964Z,16.88
2022-09-10T02:16:54.082Z,20.80
2022-09-10T02:19:20.627Z,21.65
2022-09-10T02:21:47.178Z,21.38
2022-09-10T02:24:13.980Z,22.33
2022-09-10T02:26:42.197Z,15.05
2022-09-10T02:29:09.613Z,18.17
2022-09-10T02:31:36.236Z,17.90
2022-09-10T02:34:05.711Z,17.00
2022-09-10T02:36:32.447Z,19.35
2022-09-10T02:38:59.514Z,15.68
2022-09-10T02:41:26.361Z,18.58
2022-09-10T02:43:52.932Z,20.08
2022-09-10T02:46:19.446Z,16.30
2022-09-10T02:48:45.999Z,15.35
2022-09-10T02:51:12.471Z,17.55
2022-09-10T02:53:39.179Z,14.73
2022-09-10T02:56:05.817Z,15.10
2022-09-10T02:58:32.270Z,18.75
2022-09-10T03:01:12.859Z,17.33
2022-09-10T03:03:39.421Z,20.10
2022-09-10T03:06:06.217Z,17.55
2022-09-10T03:08:32.733Z,16.88
2022-09-10T03:10:59.583Z,16.27
2022-09-10T03:13:27.752Z,14.07
2022-09-10T03:15:55.146Z,17.58
2022-09-10T03:18:25.457Z,20.60
2022-09-10T03:20:52.014Z,15.52
2022-09-10T03:23:18.692Z,18.77
2022-09-10T03:25:49.109Z,15.07
2022-09-10T03:28:16.339Z,13.80
2022-09-10T03:30:42.883Z,16.70
2022-09-10T03:33:11.800Z,14.45
2022-09-10T03:35:38.729Z,13.63
2022-09-10T03:38:06.091Z,17.83
2022-09-10T03:40:33.039Z,31.58
2022-09-10T03:42:59.636Z,15.23
2022-09-10T03:45:26.334Z,14.23
2022-09-10T03:47:52.806Z,14.23
2022-09-10T03:50:19.763Z,16.67
2022-09-10T03:52:46.323Z,13.93
2022-09-10T03:55:13.688Z,17.70
2022-09-10T03:57:41.757Z,15.68
2022-09-10T04:00:11.899Z,18.42
2022-09-10T04:02:38.358Z,14.32
2022-09-10T04:05:04.987Z,14.40
2022-09-10T04:07:31.448Z,17.75
2022-09-10T04:09:57.912Z,14.98
2022-09-10T04:12:24.943Z,15.40
2022-09-10T04:14:51.471Z,15.23
2022-09-10T04:17:18.597Z,15.40
2022-09-10T04:19:45.235Z,19.00
2022-09-10T04:22:11.704Z,19.92
2022-09-10T04:24:38.139Z,19.70
2022-09-10T04:27:04.720Z,19.85
2022-09-10T04:29:31.651Z,12.52
2022-09-10T04:31:58.499Z,16.40
2022-09-10T04:34:25.016Z,15.40
2022-09-10T04:36:53.607Z,16.90
2022-09-10T04:39:20.082Z,16.90
2022-09-10T04:41:46.557Z,16.73
2022-09-10T04:44:13.681Z,16.25
2022-09-10T04:46:41.356Z,12.43
2022-09-10T04:49:07.987Z,12.90
2022-09-10T04:51:34.432Z,13.88
2022-09-10T04:54:01.887Z,12.18
2022-09-10T04:56:28.637Z,12.57
2022-09-10T04:58:55.094Z,13.15
2022-09-10T05:01:21.635Z,13.95
2022-09-10T05:03:48.124Z,12.48
2022-09-10T05:06:14.664Z,9.32
2022-09-10T05:08:41.150Z,16.15
2022-09-10T05:11:07.619Z,13.77
2022-09-10T05:13:34.076Z,12.68
2022-09-10T05:16:00.568Z,11.82
2022-09-10T05:18:27.320Z,10.60
2022-09-10T05:20:53.868Z,12.20
2022-09-10T05:23:20.408Z,16.77
2022-09-10T05:25:48.806Z,12.73
2022-09-10T05:28:16.445Z,14.40
2022-09-10T05:30:47.159Z,10.13
2022-09-10T05:33:16.340Z,11.10
2022-09-10T05:35:42.839Z,15.50
2022-09-10T05:38:11.171Z,13.93
2022-09-10T05:40:38.043Z,10.85
2022-09-10T05:43:04.482Z,15.77
2022-09-10T05:45:31.035Z,10.85
2022-09-10T05:47:57.484Z,14.85
2022-09-10T05:50:23.930Z,17.35
2022-09-10T05:52:50.452Z,14.30
2022-09-10T05:55:17.282Z,16.48
2022-09-10T05:57:43.755Z,9.82
2022-09-10T06:00:10.457Z,14.27
2022-09-10T06:02:37.198Z,11.45
2022-09-10T06:05:04.024Z,14.20
2022-09-10T06:07:31.209Z,11.85
2022-09-10T06:09:57.796Z,8.50
2022-09-10T06:12:24.340Z,11.18
2022-09-10T06:14:50.808Z,9.43
2022-09-10T06:17:17.836Z,6.50
2022-09-10T06:19:44.713Z,9.85
2022-09-10T06:22:11.687Z,7.78
2022-09-10T06:24:38.454Z,7.45
2022-09-10T06:27:06.201Z,7.60
2022-09-10T06:29:33.338Z,7.15
2022-09-10T06:32:00.555Z,10.70
2022-09-10T06:34:26.995Z,8.30
2022-09-10T06:36:53.479Z,10.05
2022-09-10T06:39:19.910Z,8.80
2022-09-10T06:41:49.605Z,11.85
2022-09-10T06:44:16.384Z,10.05
2022-09-10T06:49:31.403Z,8.18
2022-09-10T06:51:58.000Z,8.95
2022-09-10T06:54:26.561Z,10.90
2022-09-10T06:56:53.022Z,8.43
2022-09-10T06:59:19.529Z,8.52
2022-09-10T07:01:47.430Z,7.68
2022-09-10T07:04:14.189Z,7.90
2022-09-10T07:06:40.754Z,9.05
2022-09-10T07:09:07.194Z,9.63
2022-09-10T07:11:36.857Z,8.23
2022-09-10T07:14:06.002Z,8.80
2022-09-10T07:16:32.563Z,8.70
2022-09-10T07:18:59.750Z,10.00
2022-09-10T07:21:27.428Z,8.07
2022-09-10T07:23:58.370Z,12.75
2022-09-10T07:26:25.212Z,8.52
2022-09-10T07:28:52.259Z,9.25
2022-09-10T07:31:23.767Z,6.07
2022-09-10T07:33:50.419Z,5.95
2022-09-10T07:36:17.710Z,9.93
2022-09-10T07:38:44.494Z,9.20
2022-09-10T07:41:11.843Z,10.15
2022-09-10T07:43:41.820Z,9.30
2022-09-10T07:46:08.904Z,12.57
2022-09-10T07:48:35.450Z,10.38
2022-09-10T07:51:03.015Z,12.40
2022-09-10T07:53:29.512Z,7.72
2022-09-10T07:56:03.343Z,8.30
2022-09-10T07:58:31.929Z,8.10
2022-09-10T08:00:59.895Z,6.63
2022-09-10T08:03:27.062Z,15.68
2022-09-10T08:05:54.127Z,5.80
2022-09-10T08:08:20.982Z,6.35
2022-09-10T08:10:48.657Z,6.22
2022-09-10T08:13:15.541Z,6.07
2022-09-10T08:15:48.791Z,7.28
2022-09-10T08:18:15.325Z,8.55
2022-09-10T08:20:41.884Z,4.32
2022-09-10T08:23:08.579Z,7.53
2022-09-10T08:25:35.899Z,4.18
2022-09-10T08:28:02.436Z,4.60
2022-09-10T08:30:29.194Z,9.80
2022-09-10T08:32:56.291Z,7.30
2022-09-10T08:35:22.953Z,12.30
2022-09-10T08:37:49.615Z,5.65
2022-09-10T08:40:16.535Z,6.22
2022-09-10T08:42:46.849Z,7.10
2022-09-10T08:45:15.826Z,7.28
2022-09-10T08:47:53.543Z,6.68
2022-09-10T08:50:36.197Z,7.93
2022-09-10T08:53:23.087Z,3.83
2022-09-10T08:55:50.789Z,5.05
2022-09-10T08:58:20.935Z,4.50
2022-09-10T09:00:48.394Z,7.03
2022-09-10T09:03:20.743Z,2.85
2022-09-10T09:05:48.666Z,3.75
2022-09-10T09:08:19.899Z,3.88
2022-09-10T09:10:50.642Z,3.40
2022-09-10T09:13:20.178Z,4.75
2022-09-10T09:15:53.957Z,6.15
2022-09-10T09:18:23.259Z,5.15
2022-09-10T09:20:52.719Z,4.45
2022-09-10T09:23:22.307Z,3.42
2022-09-10T09:25:49.171Z,2.67
2022-09-10T09:28:39.067Z,3.20
2022-09-10T09:31:11.354Z,3.13
2022-09-10T09:33:38.931Z,3.40
2022-09-10T09:36:06.295Z,4.93
2022-09-10T09:38:34.756Z,6.85
2022-09-10T09:41:06.745Z,3.38
2022-09-10T09:43:51.322Z,4.55
2022-09-10T09:46:18.845Z,2.90
2022-09-10T09:48:45.553Z,3.33
2022-09-10T09:51:21.062Z,4.43
2022-09-10T09:54:12.146Z,5.97
2022-09-10T09:56:43.026Z,3.80
2022-09-10T09:59:14.920Z,1.75
2022-09-10T10:01:42.812Z,1.15
2022-09-10T10:04:20.158Z,2.88
2022-09-10T10:06:47.986Z,3.70
2022-09-10T10:09:20.375Z,1.23
2022-09-10T10:11:57.817Z,1.70
2022-09-10T10:14:26.049Z,1.50
2022-09-10T10:16:56.235Z,3.55
2022-09-10T10:21:54.506Z,1.17
2022-09-10T10:24:31.808Z,2.28
2022-09-10T10:26:59.328Z,4.85
2022-09-10T10:29:26.290Z,1.85
2022-09-10T10:31:53.741Z,1.75
2022-09-10T10:34:47.424Z,1.73
2022-09-10T10:37:38.238Z,1.63
2022-09-10T10:40:28.008Z,3.03
2022-09-10T10:43:05.507Z,1.27
2022-09-10T10:45:32.031Z,5.05
2022-09-10T10:48:04.216Z,2.13
2022-09-10T10:50:53.322Z,2.13
2022-09-10T10:53:29.039Z,2.20
2022-09-10T10:56:18.866Z,2.20
2022-09-10T10:59:07.167Z,4.40
2022-09-10T11:01:37.367Z,2.33
2022-09-10T11:04:24.196Z,1.42
2022-09-10T11:07:00.959Z,2.60
2022-09-10T11:09:34.114Z,1.83
2022-09-10T11:12:24.840Z,1.60
2022-09-10T11:14:58.431Z,0.95
2022-09-10T11:17:46.518Z,1.50
2022-09-10T11:20:28.393Z,1.80
2022-09-10T11:23:16.042Z,1.45
2022-09-10T11:26:02.448Z,1.17
2022-09-10T11:28:47.537Z,1.48
2022-09-10T11:31:43.599Z,1.52
2022-09-10T11:34:28.875Z,1.55
2022-09-10T11:37:02.255Z,2.45
2022-09-10T11:39:28.663Z,4.93
2022-09-10T11:41:58.662Z,2.53
2022-09-10T11:44:37.835Z,4.13
2022-09-10T11:47:14.405Z,6.43
2022-09-10T11:49:48.402Z,2.25
2022-09-10T11:54:41.454Z,1.88
2022-09-10T11:57:26.536Z,3.42
2022-09-10T11:59:53.028Z,2.13
2022-09-10T12:02:34.696Z,3.40
2022-09-10T12:05:16.188Z,1.65
2022-09-10T12:08:01.476Z,4.30
2022-09-10T12:10:47.727Z,3.40
2022-09-10T12:13:15.267Z,3.80
2022-09-10T12:15:50.456Z,4.30
2022-09-10T12:18:22.374Z,3.95
2022-09-10T12:20:50.794Z,4.28
2022-09-10T12:23:19.579Z,3.67
2022-09-10T12:25:56.343Z,3.80
2022-09-10T12:28:41.801Z,2.00
2022-09-10T12:31:10.084Z,3.00
2022-09-10T12:33:57.762Z,2.03
2022-09-10T12:36:27.374Z,3.05
2022-09-10T12:39:12.637Z,2.28
2022-09-10T12:41:39.067Z,3.58
2022-09-10T12:44:25.010Z,3.45
2022-09-10T12:47:10.195Z,2.13
2022-09-10T12:49:44.168Z,2.65
2022-09-10T12:54:40.473Z,2.58
2022-09-10T12:57:26.007Z,0.73
2022-09-10T13:00:02.999Z,2.55
2022-09-10T13:02:37.465Z,2.30
2022-09-10T13:05:19.191Z,1.67
2022-09-10T13:07:46.434Z,1.13
2022-09-10T13:10:22.045Z,1.92
2022-09-10T13:12:50.395Z,3.13
2022-09-10T13:15:20.915Z,0.82
2022-09-10T13:17:47.342Z,1.85
2022-09-10T13:20:22.949Z,3.63
2022-09-10T13:22:55.975Z,1.63
2022-09-10T13:25:27.132Z,1.03
2022-09-10T13:27:53.686Z,2.28
2022-09-10T13:30:21.899Z,1.80
2022-09-10T13:32:52.159Z,2.15
2022-09-10T13:35:21.908Z,2.10
2022-09-10T13:38:07.110Z,1.38
2022-09-10T13:40:41.007Z,2.00
2022-09-10T13:43:07.462Z,1.48
2022-09-10T13:45:41.630Z,2.65
2022-09-10T13:48:17.506Z,1.13
2022-09-10T13:51:16.635Z,2.88
2022-09-10T13:53:45.339Z,2.20
2022-09-10T13:56:38.983Z,6.45
2022-09-10T13:59:06.194Z,1.60
2022-09-10T14:01:47.831Z,2.35
2022-09-10T14:04:23.524Z,2.20
2022-09-10T14:06:50.626Z,2.92
2022-09-10T14:09:17.334Z,1.15
2022-09-10T14:11:44.172Z,1.10
2022-09-10T14:14:12.844Z,2.03
2022-09-10T14:16:52.666Z,1.50
2022-09-10T14:19:22.299Z,1.17
2022-09-10T14:21:49.839Z,3.28
2022-09-10T14:24:27.335Z,3.92
2022-09-10T14:27:17.113Z,2.05
2022-09-10T14:29:43.665Z,1.40
2022-09-10T14:32:26.671Z,3.08
2022-09-10T14:34:53.339Z,2.90
2022-09-10T14:37:32.440Z,2.40
2022-09-10T14:40:06.148Z,2.25
2022-09-10T14:42:35.080Z,2.35
2022-09-10T14:45:02.858Z,1.05
2022-09-10T14:47:33.610Z,1.83
2022-09-10T14:50:34.195Z,3.92
2022-09-10T14:53:00.719Z,3.22
2022-09-10T14:55:28.931Z,2.15
2022-09-10T14:57:55.854Z,1.48
2022-09-10T15:00:23.202Z,1.85
2022-09-10T15:02:53.865Z,1.58
2022-09-10T15:05:20.724Z,2.90
2022-09-10T15:07:50.394Z,2.25
2022-09-10T15:10:17.173Z,3.38
2022-09-10T15:12:45.296Z,2.78
2022-09-10T15:15:17.390Z,2.17
2022-09-10T15:17:44.309Z,1.58
2022-09-10T15:20:14.869Z,1.88
2022-09-10T15:22:41.387Z,2.85
2022-09-10T15:25:10.896Z,1.38
2022-09-10T15:27:37.735Z,3.60
2022-09-10T15:30:05.372Z,2.17
2022-09-10T15:32:31.892Z,1.65
2022-09-10T15:34:59.091Z,2.13
2022-09-10T15:37:25.656Z,3.90
2022-09-10T15:39:52.914Z,1.65
2022-09-10T15:42:19.411Z,2.35
2022-09-10T15:44:45.828Z,1.35
2022-09-10T15:47:12.283Z,2.88
2022-09-10T15:49:38.751Z,5.15
2022-09-10T15:52:05.259Z,1.67
2022-09-10T15:54:33.417Z,3.55
2022-09-10T15:57:00.472Z,2.72
2022-09-10T15:59:26.927Z,2.88
2022-09-10T16:01:53.386Z,1.60
2022-09-10T16:04:19.898Z,6.35
2022-09-10T16:06:46.375Z,1.60
2022-09-10T16:09:13.611Z,1.67
2022-09-10T16:11:41.362Z,3.65
2022-09-10T16:14:08.631Z,4.60
2022-09-10T16:16:36.108Z,2.55
2022-09-10T16:19:03.206Z,2.78
2022-09-10T16:21:31.091Z,1.15
2022-09-10T16:23:58.535Z,1.55
2022-09-10T16:26:27.282Z,3.47
2022-09-10T16:28:54.930Z,2.28
2022-09-10T16:31:25.336Z,2.35
2022-09-10T16:33:55.014Z,3.60
2022-09-10T16:36:23.610Z,2.40
2022-09-10T16:38:57.045Z,3.15
2022-09-10T16:41:24.561Z,2.25
2022-09-10T16:43:51.531Z,1.42
2022-09-10T16:46:18.602Z,2.95
2022-09-10T16:48:45.271Z,2.47
2022-09-10T16:51:15.782Z,3.53
2022-09-10T16:53:44.384Z,1.20
2022-09-10T16:56:12.804Z,1.70
2022-09-10T16:58:39.642Z,1.63
2022-09-10T17:01:09.195Z,4.25
2022-09-10T17:03:36.131Z,1.92
2022-09-10T17:06:02.650Z,1.10
2022-09-10T17:08:29.519Z,1.77
2022-09-10T17:10:56.710Z,3.03
2022-09-10T17:13:23.254Z,1.35
2022-09-10T17:15:49.714Z,2.85
2022-09-10T17:18:16.674Z,1.88
2022-09-10T17:20:44.843Z,1.33
2022-09-10T17:23:12.796Z,1.45
2022-09-10T17:25:39.294Z,1.80
2022-09-10T17:28:05.762Z,2.85
2022-09-10T17:30:32.247Z,3.13
2022-09-10T17:32:59.589Z,2.13
2022-09-10T17:35:26.212Z,3.78
2022-09-10T17:37:52.806Z,4.60
2022-09-10T17:40:20.936Z,3.03
2022-09-10T17:42:48.468Z,4.65
2022-09-10T17:45:15.071Z,2.33
2022-09-10T17:47:41.630Z,3.20
2022-09-10T17:50:08.529Z,3.08
2022-09-10T17:52:35.528Z,4.10
2022-09-10T17:55:02.757Z,3.22
2022-09-10T17:57:29.270Z,3.33
2022-09-10T17:59:55.764Z,2.45
2022-09-10T18:02:22.470Z,1.17
2022-09-10T18:04:50.401Z,1.77
2022-09-10T18:07:17.104Z,2.42
2022-09-10T18:09:43.758Z,1.38
2022-09-10T18:12:10.501Z,2.78
2022-09-10T18:14:38.619Z,2.17
2022-09-10T18:17:05.138Z,2.42
2022-09-10T18:19:33.208Z,4.32
2022-09-10T18:22:01.539Z,2.90
2022-09-10T18:24:28.488Z,5.97
2022-09-10T18:26:55.144Z,5.00
2022-09-10T18:29:22.800Z,1.30
2022-09-10T18:31:51.207Z,1.95
2022-09-10T18:34:23.296Z,3.72
2022-09-10T18:36:57.643Z,2.70
2022-09-10T18:39:25.033Z,2.13
2022-09-10T18:41:51.978Z,3.80
2022-09-10T18:44:20.812Z,4.68
2022-09-10T18:46:48.268Z,3.15
2022-09-10T18:49:20.442Z,1.90
2022-09-10T18:51:48.144Z,6.00
2022-09-10T18:54:15.472Z,2.33
2022-09-10T18:56:42.346Z,2.42
2022-09-10T18:59:13.016Z,1.77
2022-09-10T19:01:40.835Z,2.08
2022-09-10T19:04:07.999Z,2.25
2022-09-10T19:06:36.221Z,3.75
2022-09-10T19:09:07.560Z,3.20
2022-09-10T19:11:35.291Z,3.45
2022-09-10T19:14:02.462Z,2.33
2022-09-10T19:16:30.345Z,4.93
2022-09-10T19:18:57.959Z,2.63
2022-09-10T19:21:26.491Z,2.95
2022-09-10T19:23:59.497Z,2.22
2022-09-10T19:26:27.595Z,3.28
2022-09-10T19:28:55.643Z,2.58
2022-09-10T19:31:22.172Z,11.95
2022-09-10T19:33:58.417Z,43.63
2022-09-10T19:36:27.689Z,20.33
2022-09-10T19:38:54.927Z,11.40
2022-09-10T19:41:21.443Z,10.13
2022-09-10T19:43:48.873Z,20.58
2022-09-10T19:46:16.578Z,21.70
2022-09-10T19:48:43.673Z,16.05
2022-09-10T19:51:19.443Z,20.67
2022-09-10T19:53:46.177Z,12.70
2022-09-10T19:56:20.243Z,8.45
2022-09-10T19:58:49.831Z,7.95
2022-09-10T20:01:26.937Z,7.05
2022-09-10T20:03:54.265Z,6.13
2022-09-10T20:06:21.510Z,7.70
2022-09-10T20:08:50.479Z,6.30
2022-09-10T20:11:18.478Z,6.03
2022-09-10T20:13:47.908Z,6.32
2022-09-10T20:16:16.014Z,6.22
2022-09-10T20:18:42.689Z,7.28
2022-09-10T20:21:13.827Z,6.53
2022-09-10T20:23:41.487Z,7.80
2022-09-10T20:26:10.454Z,9.88
2022-09-10T20:28:37.366Z,9.73
2022-09-10T20:31:05.979Z,8.95
2022-09-10T20:33:32.562Z,6.60
2022-09-10T20:35:59.052Z,7.30
2022-09-10T20:38:26.263Z,7.68
2022-09-10T20:40:52.792Z,6.70
2022-09-10T20:43:19.867Z,5.70
2022-09-10T20:45:46.831Z,5.55
2022-09-10T20:48:13.463Z,3.63
2022-09-10T20:50:39.987Z,5.10
2022-09-10T20:53:06.447Z,5.53
2022-09-10T20:55:32.951Z,4.28
2022-09-10T20:57:59.411Z,4.25
2022-09-10T21:00:25.942Z,3.70
2022-09-10T21:02:52.468Z,4.38
2022-09-10T21:05:20.722Z,4.45
2022-09-10T21:07:47.734Z,7.80
2022-09-10T21:10:14.368Z,4.93
2022-09-10T21:12:40.866Z,3.90
2022-09-10T21:15:07.621Z,3.05
2022-09-10T21:17:34.103Z,2.38
2022-09-10T21:20:00.775Z,4.32
2022-09-10T21:22:27.551Z,3.00
2022-09-10T21:24:54.030Z,2.67
2022-09-10T21:27:20.506Z,2.33
2022-09-10T21:29:47.309Z,3.65
2022-09-10T21:32:13.788Z,4.28
2022-09-10T21:34:40.514Z,3.47
2022-09-10T21:37:07.059Z,3.10
2022-09-10T21:39:33.547Z,3.58
2022-09-10T21:42:00.087Z,3.15
2022-09-10T21:44:28.621Z,3.58
2022-09-10T21:46:55.653Z,3.95
2022-09-10T21:49:22.318Z,3.78
2022-09-10T21:51:48.980Z,2.90
2022-09-10T21:54:20.795Z,3.00
2022-09-10T21:56:48.180Z,3.58
2022-09-10T21:59:15.705Z,4.00
2022-09-10T22:01:43.920Z,3.03
2022-09-10T22:04:11.311Z,3.08
2022-09-10T22:06:37.943Z,5.20
2022-09-10T22:09:06.003Z,5.82
2022-09-10T22:11:34.152Z,3.90
2022-09-10T22:14:01.796Z,3.67
2022-09-10T22:16:29.275Z,5.05
2022-09-10T22:18:56.753Z,4.32
2022-09-10T22:21:23.525Z,6.13
2022-09-10T22:23:51.887Z,3.22
2022-09-10T22:26:19.763Z,2.47
2022-09-10T22:28:46.661Z,3.92
2022-09-10T22:31:13.258Z,3.15
2022-09-10T22:33:40.664Z,4.10
2022-09-10T22:36:14.975Z,3.00
2022-09-10T22:38:43.071Z,2.83
2022-09-10T22:41:10.373Z,5.40
2022-09-10T22:43:38.593Z,10.75
2022-09-10T22:46:07.100Z,5.18
2022-09-10T22:48:34.629Z,4.45
2022-09-10T22:51:02.195Z,4.57
2022-09-10T22:53:29.187Z,2.92
2022-09-10T22:55:55.816Z,4.45
2022-09-10T22:58:24.164Z,3.53
2022-09-10T23:00:51.355Z,7.93
2022-09-10T23:03:18.121Z,9.63
2022-09-10T23:05:44.635Z,4.18
2022-09-10T23:08:11.158Z,3.75
2022-09-10T23:10:38.580Z,3.40
2022-09-10T23:13:05.765Z,8.48
2022-09-10T23:15:32.550Z,4.53
2022-09-10T23:17:59.910Z,3.85
2022-09-10T23:20:27.283Z,2.92
2022-09-10T23:22:53.795Z,3.47
2022-09-10T23:25:20.341Z,3.20
2022-09-10T23:27:48.534Z,5.20
2022-09-10T23:30:16.189Z,3.10
2022-09-10T23:32:43.831Z,11.38
2022-09-10T23:35:10.407Z,2.40
2022-09-10T23:37:36.927Z,5.10
2022-09-10T23:40:03.935Z,2.80
2022-09-10T23:42:31.318Z,3.63
2022-09-10T23:44:57.835Z,2.78
2022-09-10T23:47:24.322Z,2.35
2022-09-10T23:49:50.858Z,5.63
2022-09-10T23:52:17.763Z,2.97
2022-09-10T23:54:44.715Z,2.33
2022-09-10T23:57:11.374Z,4.28
2022-09-10T23:59:38.047Z,2.50
